Time;durP1;ratioP1;P1;durP2;ratioP2;P2;SDS_P1;SDS_P2;PMS_P1;PMS_P2;Temp;Humidity;BMP_temperature;BMP_pressure;BME280_temperature;BME280_humidity;BME280_pressure;Samples;Min_cycle;Max_cycle;Signal;HPM_P1;HPM_P2
2023/07/24 00:00:59;;;;;;;;;;;20.10;68.00;;;;;;5113523;28;20127;-71
2023/07/24 00:03:24;;;;;;;;;;;20.10;68.00;;;;;;5113800;28;19976;-67
2023/07/24 00:05:50;;;;;;;;;;;20.10;68.10;;;;;;5113534;28;19924;-67
2023/07/24 00:08:15;;;;;;;;;;;20.10;68.10;;;;;;5095541;28;19968;-68
2023/07/24 00:10:41;;;;;;;;;;;20.10;68.10;;;;;;5113435;28;19943;-67
2023/07/24 00:13:06;;;;;;;;;;;20.10;68.10;;;;;;5113239;28;19924;-68
2023/07/24 00:15:32;;;;;;;;;;;20.10;68.20;;;;;;5129499;27;20342;-67
2023/07/24 00:17:57;;;;;;;;;;;20.10;68.10;;;;;;5095162;28;19919;-67
2023/07/24 00:20:24;;;;;;;;;;;20.10;68.10;;;;;;5113504;28;19919;-67
2023/07/24 00:22:49;;;;;;;;;;;20.10;68.20;;;;;;5094778;28;19983;-67
2023/07/24 00:25:15;;;;;;;;;;;20.10;68.20;;;;;;5113404;28;19973;-68
2023/07/24 00:27:40;;;;;;;;;;;20.10;68.20;;;;;;5095243;28;20383;-70
2023/07/24 00:30:06;;;;;;;;;;;20.10;68.20;;;;;;5094886;28;19975;-67
2023/07/24 00:32:32;;;;;;;;;;;20.10;68.20;;;;;;5112895;28;19920;-68
2023/07/24 00:34:57;;;;;;;;;;;20.10;68.20;;;;;;5094906;28;20037;-67
2023/07/24 00:37:23;;;;;;;;;;;20.10;68.20;;;;;;5095058;28;19920;-67
2023/07/24 00:39:49;;;;;;;;;;;20.00;68.10;;;;;;5112991;28;19965;-67
2023/07/24 00:42:14;;;;;;;;;;;20.10;68.20;;;;;;5094653;28;19924;-67
2023/07/24 00:44:40;;;;;;;;;;;20.10;68.20;;;;;;5112953;28;19924;-68
2023/07/24 00:47:05;;;;;;;;;;;20.10;68.20;;;;;;5094971;28;20275;-67
2023/07/24 00:49:31;;;;;;;;;;;20.00;68.10;;;;;;5095080;28;19976;-68
2023/07/24 00:51:56;;;;;;;;;;;20.10;68.20;;;;;;5094366;28;19927;-67
2023/07/24 00:54:22;;;;;;;;;;;20.10;68.20;;;;;;5112627;28;19923;-68
2023/07/24 00:56:48;;;;;;;;;;;20.10;68.20;;;;;;5094678;28;20382;-67
2023/07/24 00:59:14;;;;;;;;;;;20.10;68.20;;;;;;5094465;28;19978;-67
2023/07/24 01:01:41;;;;;;;;;;;20.10;68.20;;;;;;5094831;28;19931;-67
2023/07/24 01:04:07;;;;;;;;;;;20.10;68.20;;;;;;5112520;28;19920;-69
2023/07/24 01:06:32;;;;;;;;;;;20.00;68.10;;;;;;5112891;28;19946;-67
2023/07/24 01:08:58;;;;;;;;;;;20.00;68.10;;;;;;5112779;28;20399;-67
2023/07/24 01:11:27;;;;;;;;;;;20.10;68.10;;;;;;5094717;28;19970;-67
2023/07/24 01:16:36;;;;;;;;;;;20.10;68.10;;;;;;5110309;27;19912;-67
2023/07/24 01:19:03;;;;;;;;;;;20.00;68.00;;;;;;5109212;28;19981;-71
2023/07/24 01:21:33;;;;;;;;;;;20.00;68.10;;;;;;5108862;28;20007;-67
2023/07/24 01:24:03;;;;;;;;;;;20.00;68.10;;;;;;5108722;28;19919;-67
2023/07/24 01:26:28;;;;;;;;;;;20.00;68.10;;;;;;5109159;28;20446;-67
2023/07/24 01:28:54;;;;;;;;;;;20.00;68.00;;;;;;5109012;28;20011;-67
2023/07/24 01:31:19;;;;;;;;;;;20.00;68.00;;;;;;5108646;28;19924;-68
2023/07/24 01:33:45;;;;;;;;;;;20.00;68.10;;;;;;5109004;28;19920;-68
2023/07/24 01:36:11;;;;;;;;;;;20.00;68.00;;;;;;5108556;28;19924;-67
2023/07/24 01:38:37;;;;;;;;;;;20.00;68.00;;;;;;5108948;28;20383;-67
2023/07/24 01:41:03;;;;;;;;;;;20.10;68.10;;;;;;5108812;28;19981;-67
2023/07/24 01:43:29;;;;;;;;;;;20.00;68.10;;;;;;5108679;28;20396;-67
2023/07/24 01:45:55;;;;;;;;;;;20.00;68.00;;;;;;5110173;28;19920;-67
2023/07/24 01:48:20;;;;;;;;;;;20.00;68.00;;;;;;5108675;28;19920;-67
2023/07/24 01:50:46;;;;;;;;;;;20.00;68.00;;;;;;5108269;28;19920;-67
2023/07/24 01:53:11;;;;;;;;;;;20.00;68.00;;;;;;5108650;28;20042;-67
2023/07/24 01:55:37;;;;;;;;;;;20.00;68.00;;;;;;5108202;28;20443;-67
2023/07/24 01:58:02;;;;;;;;;;;20.00;68.00;;;;;;5109605;28;19927;-68
2023/07/24 02:00:28;;;;;;;;;;;20.00;67.90;;;;;;5108450;28;19920;-67
2023/07/24 02:02:53;;;;;;;;;;;20.00;68.00;;;;;;5108077;28;20284;-67
2023/07/24 02:05:19;;;;;;;;;;;20.00;68.00;;;;;;5108064;28;19927;-67
2023/07/24 02:07:44;;;;;;;;;;;20.00;68.00;;;;;;5108050;28;19943;-67
2023/07/24 02:10:10;;;;;;;;;;;20.00;68.00;;;;;;5108340;28;20354;-67
2023/07/24 02:12:35;;;;;;;;;;;20.00;67.90;;;;;;5108015;28;19924;-67
2023/07/24 02:15:01;;;;;;;;;;;20.00;67.90;;;;;;5107631;28;20010;-67
2023/07/24 02:17:26;;;;;;;;;;;20.00;68.00;;;;;;5108800;28;19924;-67
2023/07/24 02:19:52;;;;;;;;;;;20.00;68.00;;;;;;5107809;28;20401;-67
2023/07/24 02:22:17;;;;;;;;;;;20.00;67.90;;;;;;5109365;28;20152;-68
2023/07/24 02:24:43;;;;;;;;;;;20.00;68.70;;;;;;5107699;28;20011;-67
2023/07/24 02:27:12;;;;;;;;;;;20.10;67.90;;;;;;5098422;28;19974;-67
2023/07/24 02:29:37;;;;;;;;;;;20.00;67.90;;;;;;5095329;28;19927;-67
2023/07/24 02:32:03;;;;;;;;;;;20.00;67.90;;;;;;5094227;28;19920;-68
2023/07/24 02:34:28;;;;;;;;;;;20.00;67.90;;;;;;5095108;28;20018;-68
2023/07/24 02:36:54;;;;;;;;;;;20.00;67.90;;;;;;5093860;28;20223;-67
2023/07/24 02:39:19;;;;;;;;;;;20.00;67.90;;;;;;5094339;28;19994;-67
2023/07/24 02:41:45;;;;;;;;;;;20.00;67.90;;;;;;5093741;28;19969;-67
2023/07/24 02:44:11;;;;;;;;;;;20.00;67.90;;;;;;5094248;28;20053;-68
2023/07/24 02:46:36;;;;;;;;;;;20.00;68.60;;;;;;5093670;28;19930;-68
2023/07/24 02:49:02;;;;;;;;;;;20.00;67.90;;;;;;5093243;28;19927;-68
2023/07/24 02:51:27;;;;;;;;;;;20.00;67.90;;;;;;5094865;28;19926;-67
2023/07/24 02:53:54;;;;;;;;;;;20.00;67.90;;;;;;5094032;28;19920;-67
2023/07/24 02:56:20;;;;;;;;;;;20.00;67.90;;;;;;5094633;28;20299;-67
2023/07/24 02:58:46;;;;;;;;;;;20.00;67.90;;;;;;5094666;28;19924;-67
2023/07/24 03:01:13;;;;;;;;;;;20.00;67.90;;;;;;5094477;28;20444;-67
2023/07/24 03:03:40;;;;;;;;;;;20.00;67.90;;;;;;5094584;28;19927;-67
2023/07/24 03:06:05;;;;;;;;;;;20.00;67.90;;;;;;5093619;28;20197;-67
2023/07/24 03:08:31;;;;;;;;;;;20.00;67.90;;;;;;5093216;28;20007;-67
2023/07/24 03:10:56;;;;;;;;;;;20.00;67.80;;;;;;5093630;28;19946;-68
2023/07/24 03:13:22;;;;;;;;;;;20.00;67.90;;;;;;5094490;28;19927;-68
2023/07/24 03:16:02;;;;;;;;;;;20.00;67.90;;;;;;5108589;28;19949;-68
2023/07/24 03:18:28;;;;;;;;;;;20.00;67.90;;;;;;5096663;28;19970;-67
2023/07/24 03:20:54;;;;;;;;;;;20.00;67.90;;;;;;5114891;28;20335;-67
2023/07/24 03:23:20;;;;;;;;;;;19.90;67.80;;;;;;5096349;28;19946;-68
2023/07/24 03:25:45;;;;;;;;;;;20.00;67.90;;;;;;5096604;28;19974;-68
2023/07/24 03:28:11;;;;;;;;;;;20.00;67.90;;;;;;5114510;28;19923;-68
2023/07/24 03:30:36;;;;;;;;;;;20.00;67.90;;;;;;5114472;28;19920;-67
2023/07/24 03:33:02;;;;;;;;;;;20.00;67.90;;;;;;5130220;27;20284;-68
2023/07/24 03:35:27;;;;;;;;;;;20.00;67.90;;;;;;5114255;28;19924;-68
2023/07/24 03:37:52;;;;;;;;;;;20.00;68.60;;;;;;5129626;27;20379;-67
2023/07/24 03:40:18;;;;;;;;;;;20.00;67.90;;;;;;5114038;28;19966;-67
2023/07/24 03:42:43;;;;;;;;;;;20.00;67.90;;;;;;5114256;28;19920;-68
2023/07/24 03:45:09;;;;;;;;;;;20.00;67.90;;;;;;5096130;28;19920;-67
2023/07/24 03:47:34;;;;;;;;;;;19.90;67.80;;;;;;5095172;28;20103;-67
2023/07/24 03:50:00;;;;;;;;;;;20.00;67.90;;;;;;5113852;28;19926;-67
2023/07/24 03:52:26;;;;;;;;;;;20.00;67.90;;;;;;5095911;28;19982;-68
2023/07/24 03:54:54;;;;;;;;;;;20.00;67.90;;;;;;5095665;28;19924;-67
2023/07/24 03:57:20;;;;;;;;;;;20.00;67.90;;;;;;5095978;28;19956;-67
2023/07/24 03:59:45;;;;;;;;;;;20.00;68.00;;;;;;5095609;28;20386;-67
2023/07/24 04:02:11;;;;;;;;;;;20.00;67.90;;;;;;5095656;28;19920;-69
2023/07/24 04:04:37;;;;;;;;;;;20.00;67.90;;;;;;5113824;28;19962;-68
2023/07/24 04:07:02;;;;;;;;;;;20.00;67.90;;;;;;5095857;28;19963;-68
2023/07/24 04:09:28;;;;;;;;;;;20.00;67.90;;;;;;5095530;28;20006;-68
2023/07/24 04:11:53;;;;;;;;;;;20.00;67.90;;;;;;5113880;28;20359;-68
2023/07/24 04:14:19;;;;;;;;;;;20.00;67.90;;;;;;5113354;28;19924;-68
2023/07/24 04:16:44;;;;;;;;;;;20.00;67.90;;;;;;5095295;28;19931;-67
2023/07/24 04:19:10;;;;;;;;;;;20.00;67.80;;;;;;5095049;28;19923;-68
2023/07/24 04:21:35;;;;;;;;;;;20.00;67.80;;;;;;5113097;28;19928;-68
2023/07/24 04:24:01;;;;;;;;;;;20.00;67.90;;;;;;5113464;28;19919;-68
2023/07/24 04:26:26;;;;;;;;;;;20.00;67.80;;;;;;5113530;28;19924;-67
2023/07/24 04:28:52;;;;;;;;;;;20.00;67.80;;;;;;5113418;28;20417;-67
2023/07/24 04:31:17;;;;;;;;;;;20.00;67.80;;;;;;5095047;28;19919;-68
2023/07/24 04:33:43;;;;;;;;;;;20.00;67.80;;;;;;5095102;28;19993;-67
2023/07/24 04:36:08;;;;;;;;;;;20.00;67.90;;;;;;5113014;28;20329;-71
2023/07/24 04:38:34;;;;;;;;;;;20.00;67.90;;;;;;5129477;27;19930;-67
2023/07/24 04:41:01;;;;;;;;;;;20.00;67.80;;;;;;5092357;28;20443;-67
2023/07/24 04:43:27;;;;;;;;;;;20.00;67.80;;;;;;5094656;28;19950;-68
2023/07/24 04:45:52;;;;;;;;;;;19.90;67.80;;;;;;5112406;28;19920;-67
2023/07/24 04:48:18;;;;;;;;;;;20.00;67.80;;;;;;5093982;28;19919;-71
2023/07/24 04:50:43;;;;;;;;;;;20.00;67.80;;;;;;5112439;28;19923;-67
2023/07/24 04:53:09;;;;;;;;;;;19.90;67.80;;;;;;5094601;28;20363;-67
2023/07/24 04:55:34;;;;;;;;;;;20.00;67.80;;;;;;5112785;28;20027;-68
2023/07/24 04:58:00;;;;;;;;;;;20.00;67.80;;;;;;5094438;28;19977;-70
2023/07/24 05:00:26;;;;;;;;;;;20.00;68.60;;;;;;5094346;28;19927;-71
2023/07/24 05:02:51;;;;;;;;;;;20.00;67.80;;;;;;5094320;28;19920;-67
2023/07/24 05:05:17;;;;;;;;;;;19.90;67.70;;;;;;5112550;28;19920;-67
2023/07/24 05:07:43;;;;;;;;;;;19.90;67.80;;;;;;5128375;27;19966;-67
2023/07/24 05:10:08;;;;;;;;;;;20.00;67.80;;;;;;5128662;27;19919;-67
2023/07/24 05:12:34;;;;;;;;;;;20.00;67.80;;;;;;5111730;28;20406;-69
2023/07/24 05:14:59;;;;;;;;;;;19.90;67.70;;;;;;5093675;28;20414;-71
2023/07/24 05:17:25;;;;;;;;;;;19.90;67.70;;;;;;5094143;28;19972;-68
2023/07/24 05:19:50;;;;;;;;;;;19.90;67.70;;;;;;5094578;28;19920;-67
2023/07/24 05:22:16;;;;;;;;;;;19.90;67.70;;;;;;5094044;28;19927;-67
2023/07/24 05:24:41;;;;;;;;;;;19.90;67.80;;;;;;5094134;28;20353;-67
2023/07/24 05:27:07;;;;;;;;;;;19.90;67.80;;;;;;5112457;28;19927;-68
2023/07/24 05:29:32;;;;;;;;;;;19.90;67.80;;;;;;5094680;28;19927;-67
2023/07/24 05:31:58;;;;;;;;;;;19.90;67.80;;;;;;5128114;28;20361;-68
2023/07/24 05:34:24;;;;;;;;;;;19.90;67.80;;;;;;5094454;28;19959;-68
2023/07/24 05:36:49;;;;;;;;;;;19.90;67.80;;;;;;5094003;28;19971;-67
2023/07/24 05:39:15;;;;;;;;;;;19.90;67.80;;;;;;5128415;28;20362;-68
2023/07/24 05:41:41;;;;;;;;;;;19.90;67.80;;;;;;5093958;28;20010;-67
2023/07/24 05:44:06;;;;;;;;;;;19.90;67.80;;;;;;5112365;28;19959;-67
2023/07/24 05:46:32;;;;;;;;;;;19.90;67.80;;;;;;5111998;28;20415;-67
2023/07/24 05:48:57;;;;;;;;;;;19.90;67.70;;;;;;5128305;28;19967;-67
2023/07/24 05:51:23;;;;;;;;;;;19.90;67.80;;;;;;5093819;28;19919;-67
2023/07/24 05:53:49;;;;;;;;;;;19.90;67.80;;;;;;5111133;28;19923;-68
2023/07/24 05:56:14;;;;;;;;;;;19.90;67.90;;;;;;5092189;28;19976;-69
2023/07/24 05:58:40;;;;;;;;;;;19.90;68.10;;;;;;5092647;28;20014;-69
2023/07/24 06:01:08;;;;;;;;;;;20.00;68.20;;;;;;5094043;28;19924;-69
2023/07/24 06:03:33;;;;;;;;;;;20.00;68.30;;;;;;5097689;28;19969;-69
2023/07/24 06:05:59;;;;;;;;;;;20.00;68.40;;;;;;5097920;28;19982;-69
2023/07/24 06:08:24;;;;;;;;;;;20.00;68.50;;;;;;5097281;28;19920;-70
2023/07/24 06:10:50;;;;;;;;;;;20.00;68.60;;;;;;5097074;28;20395;-68
2023/07/24 06:13:16;;;;;;;;;;;20.10;68.60;;;;;;5097275;28;20016;-68
2023/07/24 06:15:42;;;;;;;;;;;20.10;68.70;;;;;;5097325;28;19932;-68
2023/07/24 06:18:07;;;;;;;;;;;20.10;68.80;;;;;;5114993;28;19920;-68
2023/07/24 06:20:33;;;;;;;;;;;20.10;68.70;;;;;;5097278;28;19927;-69
2023/07/24 06:22:58;;;;;;;;;;;20.10;68.80;;;;;;5097570;28;19927;-68
2023/07/24 06:25:24;;;;;;;;;;;20.10;68.90;;;;;;5097159;28;20496;-69
2023/07/24 06:27:49;;;;;;;;;;;20.10;68.90;;;;;;5097488;28;19920;-68
2023/07/24 06:30:15;;;;;;;;;;;20.10;69.00;;;;;;5114868;28;20298;-68
2023/07/24 06:32:40;;;;;;;;;;;20.10;69.00;;;;;;5097510;28;20362;-68
2023/07/24 06:35:06;;;;;;;;;;;20.20;69.00;;;;;;5096768;28;19931;-70
2023/07/24 06:37:31;;;;;;;;;;;20.10;69.70;;;;;;5109970;28;19925;-68
2023/07/24 06:39:57;;;;;;;;;;;20.20;69.10;;;;;;5095397;28;19919;-67
2023/07/24 06:42:22;;;;;;;;;;;20.20;69.20;;;;;;5078701;28;19920;-68
2023/07/24 06:44:47;;;;;;;;;;;20.20;69.20;;;;;;5095871;28;20018;-67
2023/07/24 06:47:13;;;;;;;;;;;20.30;69.40;;;;;;5095937;28;20010;-67
2023/07/24 06:49:38;;;;;;;;;;;20.30;69.30;;;;;;5111357;28;19973;-67
2023/07/24 06:52:04;;;;;;;;;;;20.30;69.30;;;;;;5096710;28;19973;-68
2023/07/24 06:54:29;;;;;;;;;;;20.30;69.30;;;;;;5095557;28;20366;-68
2023/07/24 06:56:58;;;;;;;;;;;20.30;69.10;;;;;;5113926;28;19931;-67
2023/07/24 06:59:23;;;;;;;;;;;20.30;69.10;;;;;;5079875;28;20002;-67
2023/07/24 07:01:49;;;;;;;;;;;20.30;69.10;;;;;;5095947;28;20015;-67
2023/07/24 07:04:14;;;;;;;;;;;20.30;69.10;;;;;;5096299;28;19976;-67
2023/07/24 07:06:40;;;;;;;;;;;20.30;69.10;;;;;;5095419;28;20026;-67
2023/07/24 07:09:06;;;;;;;;;;;20.30;69.10;;;;;;5114441;28;19966;-67
2023/07/24 07:11:31;;;;;;;;;;;20.30;69.10;;;;;;5114572;28;19927;-67
2023/07/24 07:13:57;;;;;;;;;;;20.30;69.20;;;;;;5114478;28;19919;-68
2023/07/24 07:16:22;;;;;;;;;;;20.30;69.10;;;;;;5095781;28;19924;-68
2023/07/24 07:18:48;;;;;;;;;;;20.40;69.20;;;;;;5095263;28;19919;-67
2023/07/24 07:21:13;;;;;;;;;;;20.40;69.20;;;;;;5095097;28;20024;-67
2023/07/24 07:23:39;;;;;;;;;;;20.30;69.20;;;;;;5094854;28;19920;-67
2023/07/24 07:26:04;;;;;;;;;;;20.40;69.30;;;;;;5095172;27;20350;-67
2023/07/24 07:28:30;;;;;;;;;;;20.40;69.40;;;;;;5103452;27;20668;-67
2023/07/24 07:30:55;;;;;;;;;;;20.40;69.30;;;;;;5116280;27;19924;-66
2023/07/24 07:33:21;;;;;;;;;;;20.40;69.30;;;;;;5116135;27;20005;-66
2023/07/24 07:35:47;;;;;;;;;;;20.40;69.30;;;;;;5116264;27;19927;-66
2023/07/24 07:38:12;;;;;;;;;;;20.40;69.30;;;;;;5109505;27;20010;-67
2023/07/24 07:40:39;;;;;;;;;;;20.40;69.40;;;;;;5095970;28;19959;-67
2023/07/24 07:43:04;;;;;;;;;;;20.40;69.30;;;;;;5095310;28;20370;-68
2023/07/24 07:45:30;;;;;;;;;;;20.40;69.40;;;;;;5095940;28;19920;-67
2023/07/24 07:47:55;;;;;;;;;;;20.40;69.50;;;;;;5094989;28;19924;-67
2023/07/24 07:50:21;;;;;;;;;;;20.40;69.60;;;;;;5113733;28;19919;-67
2023/07/24 07:52:51;;;;;;;;;;;20.40;69.60;;;;;;5094757;28;20010;-69
2023/07/24 07:55:17;;;;;;;;;;;20.40;69.70;;;;;;5112502;28;19985;-70
2023/07/24 07:57:42;;;;;;;;;;;20.40;69.70;;;;;;5094770;28;20437;-68
2023/07/24 08:00:08;;;;;;;;;;;20.40;69.70;;;;;;5095239;28;19927;-69
2023/07/24 08:02:34;;;;;;;;;;;20.40;69.70;;;;;;5113122;28;19927;-69
2023/07/24 08:04:59;;;;;;;;;;;20.40;69.60;;;;;;5113387;28;19920;-69
2023/07/24 08:07:25;;;;;;;;;;;20.40;69.70;;;;;;5114421;27;19932;-68
2023/07/24 08:09:50;;;;;;;;;;;20.40;69.60;;;;;;5094974;28;19920;-68
2023/07/24 08:12:16;;;;;;;;;;;20.40;69.60;;;;;;5094172;28;19926;-68
2023/07/24 08:14:41;;;;;;;;;;;20.40;69.70;;;;;;5094016;28;20404;-69
2023/07/24 08:17:07;;;;;;;;;;;20.40;69.70;;;;;;5112388;28;19920;-68
2023/07/24 08:19:32;;;;;;;;;;;20.40;69.60;;;;;;5094516;28;19920;-68
2023/07/24 08:21:58;;;;;;;;;;;20.50;69.70;;;;;;5112852;28;19923;-68
2023/07/24 08:24:23;;;;;;;;;;;20.50;69.70;;;;;;5092994;28;19920;-68
2023/07/24 08:26:49;;;;;;;;;;;20.50;69.70;;;;;;5094595;27;19974;-69
2023/07/24 08:29:14;;;;;;;;;;;20.50;69.90;;;;;;5113129;27;20411;-69
2023/07/24 08:31:40;;;;;;;;;;;20.50;69.80;;;;;;5098190;27;20486;-68
2023/07/24 08:34:05;;;;;;;;;;;20.50;69.90;;;;;;5095603;28;19927;-68
2023/07/24 08:36:31;;;;;;;;;;;20.50;69.90;;;;;;5093072;28;19977;-68
2023/07/24 08:38:56;;;;;;;;;;;20.50;69.80;;;;;;5092656;28;20401;-67
2023/07/24 08:41:22;;;;;;;;;;;20.50;69.90;;;;;;5093268;28;19919;-67
2023/07/24 08:43:49;;;;;;;;;;;20.50;70.00;;;;;;5092516;28;19927;-67
2023/07/24 08:46:14;;;;;;;;;;;20.50;69.90;;;;;;5093405;28;19919;-67
2023/07/24 08:48:41;;;;;;;;;;;20.50;69.90;;;;;;5093406;28;19939;-67
2023/07/24 08:51:08;;;;;;;;;;;20.50;69.90;;;;;;5111825;28;19919;-67
2023/07/24 08:53:35;;;;;;;;;;;20.50;69.80;;;;;;5111507;28;19953;-67
2023/07/24 08:56:02;;;;;;;;;;;20.50;69.70;;;;;;5112731;27;19924;-67
2023/07/24 08:58:27;;;;;;;;;;;20.50;69.60;;;;;;5093106;28;19920;-69
2023/07/24 09:00:53;;;;;;;;;;;20.50;69.70;;;;;;5092976;28;19965;-69
2023/07/24 09:03:18;;;;;;;;;;;20.50;69.70;;;;;;5093534;28;20442;-68
2023/07/24 09:05:44;;;;;;;;;;;20.50;69.90;;;;;;5094358;28;19920;-68
2023/07/24 09:08:10;;;;;;;;;;;20.50;70.00;;;;;;5093580;28;20288;-68
2023/07/24 09:10:35;;;;;;;;;;;20.60;70.20;;;;;;5092065;28;19928;-68
2023/07/24 09:13:03;;;;;;;;;;;20.60;70.20;;;;;;5092775;28;19977;-68
2023/07/24 09:15:29;;;;;;;;;;;20.60;70.30;;;;;;5093053;28;20367;-72
2023/07/24 09:17:55;;;;;;;;;;;20.60;70.20;;;;;;5098231;28;19934;-68
2023/07/24 09:20:21;;;;;;;;;;;20.60;70.30;;;;;;5111969;28;19920;-68
2023/07/24 09:22:49;;;;;;;;;;;20.60;70.30;;;;;;5112428;28;20061;-68
2023/07/24 09:25:15;;;;;;;;;;;20.60;70.20;;;;;;5093462;28;19951;-68
2023/07/24 09:27:40;;;;;;;;;;;20.70;70.40;;;;;;5094188;28;20264;-69
2023/07/24 09:30:12;;;;;;;;;;;20.60;70.30;;;;;;5112253;28;20023;-68
2023/07/24 09:32:38;;;;;;;;;;;20.70;70.30;;;;;;5094107;28;19965;-69
2023/07/24 09:35:04;;;;;;;;;;;20.60;70.30;;;;;;5092968;28;19924;-69
2023/07/24 09:37:33;;;;;;;;;;;20.70;70.40;;;;;;5095483;28;20028;-69
2023/07/24 09:39:59;;;;;;;;;;;20.70;70.40;;;;;;5124377;27;19923;-69
2023/07/24 09:42:32;;;;;;;;;;;20.70;70.30;;;;;;5097809;28;20434;-69
2023/07/24 09:44:58;;;;;;;;;;;20.70;70.30;;;;;;5096388;28;19939;-69
2023/07/24 09:47:23;;;;;;;;;;;20.70;70.30;;;;;;5115071;28;19920;-68
2023/07/24 09:49:50;;;;;;;;;;;20.70;70.40;;;;;;5097722;28;19920;-68
2023/07/24 09:52:17;;;;;;;;;;;20.70;70.30;;;;;;5115328;27;20374;-68
2023/07/24 09:54:50;;;;;;;;;;;20.70;70.30;;;;;;5116526;27;20378;-68
2023/07/24 09:57:16;;;;;;;;;;;20.70;70.30;;;;;;5094229;28;20010;-68
2023/07/24 09:59:41;;;;;;;;;;;20.70;70.40;;;;;;5115064;28;20072;-69
2023/07/24 10:02:10;;;;;;;;;;;20.80;70.40;;;;;;5127691;27;20379;-68
2023/07/24 10:04:37;;;;;;;;;;;20.70;70.40;;;;;;5095154;28;19923;-68
2023/07/24 10:07:04;;;;;;;;;;;20.70;70.40;;;;;;5115295;28;19965;-68
2023/07/24 10:09:29;;;;;;;;;;;20.80;70.50;;;;;;5097476;28;20279;-75
2023/07/24 10:11:56;;;;;;;;;;;20.80;70.40;;;;;;5119797;27;19927;-68
2023/07/24 10:14:21;;;;;;;;;;;20.80;70.40;;;;;;5116186;27;20342;-76
2023/07/24 10:16:49;;;;;;;;;;;20.80;70.40;;;;;;5112815;28;19986;-75
2023/07/24 10:19:15;;;;;;;;;;;20.80;70.40;;;;;;5094988;28;19969;-68
2023/07/24 10:21:45;;;;;;;;;;;20.80;70.40;;;;;;5092921;28;19919;-75
2023/07/24 10:24:11;;;;;;;;;;;20.80;70.40;;;;;;5095911;28;19935;-68
2023/07/24 10:26:36;;;;;;;;;;;20.80;70.50;;;;;;5094456;28;19942;-68
2023/07/24 10:29:02;;;;;;;;;;;20.80;70.40;;;;;;5096365;28;19923;-68
2023/07/24 10:31:28;;;;;;;;;;;20.80;70.40;;;;;;5111009;27;19926;-68
2023/07/24 10:33:54;;;;;;;;;;;20.80;70.40;;;;;;5079652;28;19920;-69
2023/07/24 10:36:22;;;;;;;;;;;20.80;70.50;;;;;;5094506;28;19926;-74
2023/07/24 10:38:53;;;;;;;;;;;20.80;70.40;;;;;;5095045;28;19968;-68
2023/07/24 10:41:18;;;;;;;;;;;20.90;70.40;;;;;;5107714;28;19963;-68
2023/07/24 10:43:45;;;;;;;;;;;20.90;70.30;;;;;;5096319;28;20322;-68
2023/07/24 10:46:11;;;;;;;;;;;20.90;70.40;;;;;;5096396;28;19928;-68
2023/07/24 10:48:36;;;;;;;;;;;20.90;70.40;;;;;;5125515;27;20378;-68
2023/07/24 10:51:09;;;;;;;;;;;20.90;70.40;;;;;;5113184;28;19939;-67
2023/07/24 10:53:36;;;;;;;;;;;20.90;70.40;;;;;;5093048;28;20127;-66
2023/07/24 10:56:02;;;;;;;;;;;20.90;70.40;;;;;;5096365;28;20359;-67
2023/07/24 10:58:28;;;;;;;;;;;20.90;70.20;;;;;;5113470;27;19924;-66
2023/07/24 11:00:56;;;;;;;;;;;21.00;70.30;;;;;;5113365;27;19977;-67
2023/07/24 11:03:21;;;;;;;;;;;21.00;70.30;;;;;;5094589;28;20286;-68
2023/07/24 11:05:47;;;;;;;;;;;21.00;70.20;;;;;;5093992;28;19928;-70
2023/07/24 11:08:15;;;;;;;;;;;21.00;70.10;;;;;;5093948;28;20290;-69
2023/07/24 11:10:48;;;;;;;;;;;21.00;70.00;;;;;;5094417;28;19920;-73
2023/07/24 11:13:15;;;;;;;;;;;21.10;70.10;;;;;;5094658;28;19920;-69
2023/07/24 11:15:40;;;;;;;;;;;21.00;69.90;;;;;;5092177;28;19928;-71
2023/07/24 11:18:08;;;;;;;;;;;21.00;69.90;;;;;;5092046;28;19985;-67
2023/07/24 11:20:37;;;;;;;;;;;21.00;69.90;;;;;;5092363;28;19970;-67
2023/07/24 11:23:02;;;;;;;;;;;21.10;69.90;;;;;;5101178;28;20010;-67
2023/07/24 11:25:28;;;;;;;;;;;21.00;69.80;;;;;;5092496;28;20020;-67
2023/07/24 11:27:54;;;;;;;;;;;21.00;69.90;;;;;;5091482;28;20006;-68
2023/07/24 11:30:20;;;;;;;;;;;21.10;69.90;;;;;;5092355;28;19988;-68
2023/07/24 11:32:46;;;;;;;;;;;21.10;69.90;;;;;;5092111;28;19924;-68
2023/07/24 11:35:12;;;;;;;;;;;21.10;69.90;;;;;;5093478;28;19924;-67
2023/07/24 11:37:37;;;;;;;;;;;21.00;69.70;;;;;;5091828;28;19920;-68
2023/07/24 11:40:09;;;;;;;;;;;21.10;69.80;;;;;;5089279;28;19927;-67
2023/07/24 11:42:39;;;;;;;;;;;21.10;70.00;;;;;;5089668;28;19955;-67
2023/07/24 11:45:05;;;;;;;;;;;21.00;69.80;;;;;;5089280;28;20359;-73
2023/07/24 11:47:30;;;;;;;;;;;21.00;69.80;;;;;;5091245;28;19927;-67
2023/07/24 11:49:56;;;;;;;;;;;21.10;69.80;;;;;;5090577;28;19920;-67
2023/07/24 11:52:22;;;;;;;;;;;21.10;69.80;;;;;;5090281;28;19920;-68
2023/07/24 11:54:57;;;;;;;;;;;21.10;69.80;;;;;;5091521;28;20364;-67
2023/07/24 11:57:23;;;;;;;;;;;21.10;69.80;;;;;;5091339;28;19973;-67
2023/07/24 11:59:48;;;;;;;;;;;21.10;69.90;;;;;;5091156;28;19920;-68
2023/07/24 12:02:13;;;;;;;;;;;21.20;69.90;;;;;;5094120;28;19959;-67
2023/07/24 12:04:39;;;;;;;;;;;21.10;69.90;;;;;;5091865;28;19920;-68
2023/07/24 12:07:08;;;;;;;;;;;21.20;69.90;;;;;;5093332;28;19924;-67
2023/07/24 12:09:34;;;;;;;;;;;21.10;69.80;;;;;;5105504;28;19919;-67
2023/07/24 12:11:59;;;;;;;;;;;21.20;69.80;;;;;;5112648;28;19965;-67
2023/07/24 12:14:25;;;;;;;;;;;21.10;69.70;;;;;;5108518;28;19938;-67
2023/07/24 12:17:00;;;;;;;;;;;21.10;69.70;;;;;;5094625;28;19928;-67
2023/07/24 12:19:25;;;;;;;;;;;21.20;69.70;;;;;;5095098;28;20455;-67
2023/07/24 12:21:51;;;;;;;;;;;21.20;69.60;;;;;;5117447;27;19919;-66
2023/07/24 12:24:16;;;;;;;;;;;21.10;69.60;;;;;;5099689;28;19920;-73
2023/07/24 12:26:42;;;;;;;;;;;21.20;69.60;;;;;;5093985;28;19920;-67
2023/07/24 12:29:07;;;;;;;;;;;21.20;69.60;;;;;;5095205;28;20401;-67
2023/07/24 12:31:33;;;;;;;;;;;21.20;69.60;;;;;;5100914;28;20006;-67
2023/07/24 12:33:58;;;;;;;;;;;21.20;69.60;;;;;;5112698;28;20495;-68
2023/07/24 12:36:24;;;;;;;;;;;21.20;69.60;;;;;;5112872;28;19945;-67
2023/07/24 12:38:49;;;;;;;;;;;21.20;69.50;;;;;;5113151;28;19920;-67
2023/07/24 12:41:15;;;;;;;;;;;21.20;69.50;;;;;;5112660;27;20326;-67
2023/07/24 12:43:40;;;;;;;;;;;21.20;69.50;;;;;;5114191;27;19923;-69
2023/07/24 12:46:06;;;;;;;;;;;21.20;69.50;;;;;;5094862;28;19927;-67
2023/07/24 12:48:31;;;;;;;;;;;21.20;69.50;;;;;;5093670;28;20385;-66
2023/07/24 12:50:57;;;;;;;;;;;21.20;69.50;;;;;;5112356;28;19924;-72
2023/07/24 12:53:23;;;;;;;;;;;21.20;69.40;;;;;;5094811;28;20011;-67
2023/07/24 12:55:49;;;;;;;;;;;21.20;69.50;;;;;;5093556;28;20010;-67
2023/07/24 12:58:14;;;;;;;;;;;21.20;70.20;;;;;;5094793;28;20378;-67
2023/07/24 13:00:39;;;;;;;;;;;21.20;69.30;;;;;;5112520;28;19919;-66
2023/07/24 13:03:05;;;;;;;;;;;21.20;69.30;;;;;;5092810;28;19950;-67
2023/07/24 13:05:30;;;;;;;;;;;21.20;69.20;;;;;;5094322;28;19920;-67
2023/07/24 13:07:56;;;;;;;;;;;21.20;69.20;;;;;;5112680;28;19965;-67
2023/07/24 13:10:22;;;;;;;;;;;21.30;69.30;;;;;;5128457;27;20319;-73
2023/07/24 13:12:48;;;;;;;;;;;21.20;69.40;;;;;;5094033;28;20385;-72
2023/07/24 13:15:14;;;;;;;;;;;21.30;69.40;;;;;;5092570;28;20383;-68
2023/07/24 13:17:39;;;;;;;;;;;21.30;69.40;;;;;;5092926;28;19927;-71
2023/07/24 13:20:05;;;;;;;;;;;21.30;69.50;;;;;;5093021;28;19928;-67
2023/07/24 13:22:31;;;;;;;;;;;21.30;69.50;;;;;;5090883;28;19930;-67
2023/07/24 13:24:56;;;;;;;;;;;21.30;69.40;;;;;;5110708;28;19919;-67
2023/07/24 13:27:22;;;;;;;;;;;21.30;69.50;;;;;;5092826;28;19923;-67
2023/07/24 13:29:47;;;;;;;;;;;21.30;69.40;;;;;;5091888;28;19920;-67
2023/07/24 13:32:13;;;;;;;;;;;21.30;69.70;;;;;;5092508;28;20475;-68
2023/07/24 13:34:38;;;;;;;;;;;21.40;69.80;;;;;;5089458;28;20298;-68
2023/07/24 13:37:04;;;;;;;;;;;21.40;69.80;;;;;;5093347;28;19926;-68
2023/07/24 13:39:31;;;;;;;;;;;21.40;69.80;;;;;;5127826;28;20290;-74
2023/07/24 13:41:56;;;;;;;;;;;21.40;69.70;;;;;;5092283;28;19928;-69
2023/07/24 13:44:22;;;;;;;;;;;21.40;69.70;;;;;;5092875;28;19953;-68
2023/07/24 13:46:48;;;;;;;;;;;21.40;69.60;;;;;;5092211;28;19926;-73
2023/07/24 13:49:13;;;;;;;;;;;21.40;69.60;;;;;;5093736;28;19924;-67
2023/07/24 13:51:38;;;;;;;;;;;21.30;69.50;;;;;;5112279;28;20297;-72
2023/07/24 13:54:04;;;;;;;;;;;21.40;69.60;;;;;;5092494;28;19920;-68
2023/07/24 13:56:33;;;;;;;;;;;21.30;69.70;;;;;;5093889;28;20387;-75
2023/07/24 13:58:58;;;;;;;;;;;21.30;69.50;;;;;;5093559;28;19919;-67
2023/07/24 14:01:24;;;;;;;;;;;21.30;69.60;;;;;;5093783;28;19920;-68
2023/07/24 14:03:49;;;;;;;;;;;21.30;69.70;;;;;;5091665;28;20267;-68
2023/07/24 14:06:15;;;;;;;;;;;21.30;69.50;;;;;;5093096;28;19932;-72
2023/07/24 14:08:40;;;;;;;;;;;21.30;69.70;;;;;;5093890;28;20241;-70
2023/07/24 14:11:06;;;;;;;;;;;21.30;69.70;;;;;;5111015;28;19927;-68